createdAt,value
2023-04-04T00:00:23.266Z,3.17
2023-04-04T00:02:50.622Z,4.43
2023-04-04T00:05:17.899Z,2.90
2023-04-04T00:07:47.882Z,4.03
2023-04-04T00:10:15.789Z,4.27
2023-04-04T00:12:43.479Z,3.43
2023-04-04T00:15:11.369Z,5.80
2023-04-04T00:17:38.218Z,5.07
2023-04-04T00:20:05.624Z,2.37
2023-04-04T00:22:32.581Z,4.33
2023-04-04T00:24:59.356Z,3.00
2023-04-04T00:27:26.436Z,2.73
2023-04-04T00:29:53.646Z,3.60
2023-04-04T00:32:21.859Z,3.33
2023-04-04T00:34:55.349Z,2.83
2023-04-04T00:37:22.352Z,3.03
2023-04-04T00:39:50.252Z,3.53
2023-04-04T00:42:18.180Z,2.93
2023-04-04T00:44:45.141Z,3.87
2023-04-04T00:47:12.126Z,2.53
2023-04-04T00:49:39.060Z,3.03
2023-04-04T00:52:07.870Z,3.07
2023-04-04T00:54:36.032Z,3.17
2023-04-04T00:57:04.916Z,2.53
2023-04-04T00:59:33.030Z,3.70
2023-04-04T01:02:00.945Z,3.40
2023-04-04T01:04:31.844Z,3.67
2023-04-04T01:06:59.895Z,2.87
2023-04-04T01:09:27.473Z,4.50
2023-04-04T01:11:55.979Z,3.03
2023-04-04T01:14:22.968Z,2.80
2023-04-04T01:16:53.100Z,6.10
2023-04-04T01:19:29.061Z,3.57
2023-04-04T01:21:57.443Z,3.07
2023-04-04T01:24:26.257Z,3.53
2023-04-04T01:26:52.997Z,2.63
2023-04-04T01:29:20.454Z,5.37
2023-04-04T01:31:55.557Z,5.87
2023-04-04T01:34:44.797Z,3.93
2023-04-04T01:37:33.513Z,2.20
2023-04-04T01:40:08.853Z,4.10
2023-04-04T01:42:37.117Z,2.13
2023-04-04T01:45:06.227Z,2.47
2023-04-04T01:47:40.693Z,2.67
2023-04-04T01:50:09.180Z,3.60
2023-04-04T01:52:36.223Z,3.27
2023-04-04T01:55:04.059Z,2.47
2023-04-04T01:57:31.215Z,2.27
2023-04-04T01:59:57.989Z,4.13
2023-04-04T02:02:24.960Z,3.67
2023-04-04T02:04:52.488Z,2.83
2023-04-04T02:07:19.632Z,3.03
2023-04-04T02:09:46.597Z,2.37
2023-04-04T02:12:13.512Z,3.17
2023-04-04T02:14:40.977Z,1.97
2023-04-04T02:17:10.734Z,3.70
2023-04-04T02:19:37.561Z,3.27
2023-04-04T02:22:04.386Z,4.60
2023-04-04T02:24:31.124Z,3.97
2023-04-04T02:26:57.845Z,2.23
2023-04-04T02:29:24.574Z,4.03
2023-04-04T02:31:51.395Z,3.17
2023-04-04T02:34:18.487Z,2.43
2023-04-04T02:36:45.457Z,4.50
2023-04-04T02:39:12.387Z,2.17
2023-04-04T02:41:39.092Z,3.70
2023-04-04T02:44:05.991Z,2.43
2023-04-04T02:46:32.855Z,4.20
2023-04-04T02:48:59.577Z,3.83
2023-04-04T02:51:26.622Z,3.77
2023-04-04T02:53:53.451Z,3.70
2023-04-04T02:56:20.224Z,4.37
2023-04-04T02:58:47.100Z,3.87
2023-04-04T03:01:14.182Z,3.47
2023-04-04T03:03:41.082Z,2.30
2023-04-04T03:06:08.218Z,3.27
2023-04-04T03:08:35.918Z,4.93
2023-04-04T03:11:03.012Z,3.33
2023-04-04T03:13:29.831Z,3.07
2023-04-04T03:16:03.539Z,3.53
2023-04-04T03:18:30.589Z,2.57
2023-04-04T03:20:57.301Z,3.30
2023-04-04T03:23:24.230Z,2.60
2023-04-04T03:25:51.082Z,3.47
2023-04-04T03:28:18.270Z,2.83
2023-04-04T03:30:45.092Z,4.20
2023-04-04T03:33:11.826Z,3.27
2023-04-04T03:35:42.179Z,3.47
2023-04-04T03:38:10.176Z,3.07
2023-04-04T03:40:37.387Z,2.50
2023-04-04T03:43:07.573Z,2.73
2023-04-04T03:45:36.035Z,4.33
2023-04-04T03:48:02.888Z,3.33
2023-04-04T03:50:30.197Z,3.50
2023-04-04T03:52:58.665Z,3.70
2023-04-04T03:55:26.501Z,3.63
2023-04-04T03:57:53.557Z,4.97
2023-04-04T04:00:20.832Z,6.07
2023-04-04T04:02:47.611Z,2.40
2023-04-04T04:05:14.493Z,3.77
2023-04-04T04:07:44.647Z,2.83
2023-04-04T04:10:12.562Z,2.57
2023-04-04T04:12:39.256Z,3.57
2023-04-04T04:15:06.668Z,4.07
2023-04-04T04:17:33.598Z,5.60
2023-04-04T04:20:00.348Z,3.83
2023-04-04T04:22:27.101Z,2.50
2023-04-04T04:24:53.787Z,5.07
2023-04-04T04:27:20.445Z,3.27
2023-04-04T04:29:47.467Z,5.07
2023-04-04T04:32:17.904Z,4.50
2023-04-04T04:34:45.224Z,4.27
2023-04-04T04:37:11.890Z,3.40
2023-04-04T04:39:38.779Z,10.80
2023-04-04T04:42:05.649Z,4.47
2023-04-04T04:44:32.664Z,6.43
2023-04-04T04:46:59.375Z,3.03
2023-04-04T04:49:26.631Z,6.13
2023-04-04T04:51:54.235Z,5.97
2023-04-04T04:54:21.136Z,4.60
2023-04-04T04:56:47.839Z,4.80
2023-04-04T04:59:15.904Z,7.73
2023-04-04T05:01:42.629Z,4.07
2023-04-04T05:04:09.345Z,3.50
2023-04-04T05:06:36.214Z,4.60
2023-04-04T05:09:02.953Z,3.00
2023-04-04T05:11:29.643Z,4.97
2023-04-04T05:13:56.514Z,5.53
2023-04-04T05:16:23.233Z,7.37
2023-04-04T05:18:50.505Z,4.97
2023-04-04T05:21:17.569Z,4.27
2023-04-04T05:23:45.421Z,3.33
2023-04-04T05:26:12.428Z,7.23
2023-04-04T05:28:40.677Z,3.73
2023-04-04T05:31:07.452Z,6.87
2023-04-04T05:33:34.110Z,3.47
2023-04-04T05:36:01.376Z,3.33
2023-04-04T05:38:28.202Z,3.53
2023-04-04T05:40:54.901Z,3.77
2023-04-04T05:43:21.975Z,2.97
2023-04-04T05:45:48.689Z,3.50
2023-04-04T05:48:15.704Z,5.20
2023-04-04T05:50:47.149Z,4.03
2023-04-04T05:53:14.480Z,4.20
2023-04-04T05:55:41.489Z,3.83
2023-04-04T05:58:08.229Z,3.90
2023-04-04T06:00:35.307Z,3.43
2023-04-04T06:03:02.329Z,5.20
2023-04-04T06:05:29.255Z,3.57
2023-04-04T06:07:56.112Z,6.63
2023-04-04T06:10:22.845Z,3.43
2023-04-04T06:12:49.584Z,3.77
2023-04-04T06:15:16.746Z,3.47
2023-04-04T06:17:43.634Z,2.80
2023-04-04T06:20:11.170Z,3.87
2023-04-04T06:22:38.018Z,8.13
2023-04-04T06:25:05.189Z,3.53
2023-04-04T06:27:31.997Z,8.33
2023-04-04T06:29:59.392Z,4.87
2023-04-04T06:32:26.545Z,3.50
2023-04-04T06:34:53.786Z,4.07
2023-04-04T06:37:20.472Z,6.47
2023-04-04T06:39:47.923Z,3.70
2023-04-04T06:42:14.824Z,3.53
2023-04-04T06:44:41.669Z,4.70
2023-04-04T06:47:08.638Z,3.93
2023-04-04T06:49:35.954Z,3.73
2023-04-04T06:52:03.389Z,3.33
2023-04-04T06:54:30.678Z,3.50
2023-04-04T06:56:57.944Z,4.17
2023-04-04T06:59:24.945Z,3.80
2023-04-04T07:01:52.090Z,5.43
2023-04-04T07:04:20.540Z,2.70
2023-04-04T07:06:47.644Z,3.00
2023-04-04T07:09:25.779Z,3.53
2023-04-04T07:11:56.743Z,3.20
2023-04-04T07:14:25.881Z,3.53
2023-04-04T07:16:53.645Z,4.37
2023-04-04T07:19:20.728Z,2.90
2023-04-04T07:21:47.512Z,3.43
2023-04-04T07:24:14.367Z,3.93
2023-04-04T07:26:41.552Z,3.57
2023-04-04T07:29:08.355Z,3.10
2023-04-04T07:31:35.276Z,4.63
2023-04-04T07:34:02.894Z,2.30
2023-04-04T07:36:29.857Z,2.83
2023-04-04T07:38:56.768Z,3.77
2023-04-04T07:41:23.970Z,3.93
2023-04-04T07:43:51.831Z,3.80
2023-04-04T07:46:18.717Z,3.87
2023-04-04T07:48:45.443Z,4.13
2023-04-04T07:51:12.784Z,3.23
2023-04-04T07:53:39.732Z,4.63
2023-04-04T07:56:07.040Z,4.03
2023-04-04T07:58:35.117Z,3.63
2023-04-04T08:01:03.992Z,3.53
2023-04-04T08:03:31.655Z,4.50
2023-04-04T08:05:59.039Z,3.93
2023-04-04T08:08:26.361Z,7.20
2023-04-04T08:10:53.877Z,4.77
2023-04-04T08:13:24.112Z,4.80
2023-04-04T08:15:51.355Z,2.67
2023-04-04T08:18:18.642Z,5.30
2023-04-04T08:20:47.100Z,4.33
2023-04-04T08:23:18.332Z,4.33
2023-04-04T08:25:47.428Z,6.30
2023-04-04T08:28:17.871Z,2.80
2023-04-04T08:30:44.991Z,4.57
2023-04-04T08:33:12.674Z,3.37
2023-04-04T08:35:40.034Z,5.83
2023-04-04T08:38:11.369Z,9.47
2023-04-04T08:40:41.655Z,5.93
2023-04-04T08:43:10.422Z,5.27
2023-04-04T08:45:42.160Z,7.40
2023-04-04T08:48:12.864Z,5.37
2023-04-04T08:50:43.141Z,5.07
2023-04-04T08:53:14.983Z,3.73
2023-04-04T08:55:43.650Z,3.07
2023-04-04T08:58:10.799Z,5.07
2023-04-04T09:00:43.688Z,3.57
2023-04-04T09:03:18.966Z,2.63
2023-04-04T09:05:47.900Z,5.80
2023-04-04T09:08:17.232Z,4.10
2023-04-04T09:10:48.553Z,4.37
2023-04-04T09:13:18.588Z,6.87
2023-04-04T09:15:54.950Z,5.07
2023-04-04T09:18:25.165Z,4.23
2023-04-04T09:20:52.477Z,2.80
2023-04-04T09:23:21.432Z,4.43
2023-04-04T09:26:03.655Z,5.23
2023-04-04T09:28:32.744Z,3.30
2023-04-04T09:31:06.037Z,5.10
2023-04-04T09:33:34.571Z,4.37
2023-04-04T09:36:11.388Z,5.10
2023-04-04T09:38:45.796Z,3.20
2023-04-04T09:41:16.865Z,3.07
2023-04-04T09:43:48.756Z,4.57
2023-04-04T09:46:20.905Z,4.77
2023-04-04T09:48:51.464Z,4.17
2023-04-04T09:51:18.833Z,3.00
2023-04-04T09:53:51.848Z,4.73
2023-04-04T09:56:22.799Z,3.67
2023-04-04T09:59:03.051Z,3.87
2023-04-04T10:01:31.825Z,4.83
2023-04-04T10:03:59.724Z,4.00
2023-04-04T10:06:27.769Z,3.20
2023-04-04T10:08:57.072Z,3.67
2023-04-04T10:11:37.187Z,4.60
2023-04-04T10:14:05.110Z,5.33
2023-04-04T10:16:34.394Z,5.17
2023-04-04T10:19:04.896Z,3.03
2023-04-04T10:21:35.529Z,4.53
2023-04-04T10:24:09.610Z,2.80
2023-04-04T10:26:37.414Z,7.53
2023-04-04T10:29:06.609Z,3.03
2023-04-04T10:31:38.566Z,3.93
2023-04-04T10:34:20.988Z,3.93
2023-04-04T10:36:55.598Z,5.30
2023-04-04T10:39:53.793Z,3.63
2023-04-04T10:42:26.688Z,3.77
2023-04-04T10:44:54.154Z,3.87
2023-04-04T10:47:23.538Z,4.53
2023-04-04T10:49:55.122Z,2.90
2023-04-04T10:52:29.210Z,3.00
2023-04-04T10:55:22.432Z,3.10
2023-04-04T10:58:05.913Z,2.93
2023-04-04T11:00:51.339Z,4.47
2023-04-04T11:03:26.020Z,3.30
2023-04-04T11:06:05.354Z,3.73
2023-04-04T11:09:14.972Z,2.97
2023-04-04T11:12:23.518Z,3.13
2023-04-04T11:15:07.733Z,4.43
2023-04-04T11:17:54.722Z,7.13
2023-04-04T11:20:33.719Z,2.17
2023-04-04T11:23:27.685Z,4.77
2023-04-04T11:26:07.456Z,5.33
2023-04-04T11:29:18.720Z,4.40
2023-04-04T11:31:49.980Z,3.93
2023-04-04T11:34:37.168Z,3.27
2023-04-04T11:37:19.478Z,5.83
2023-04-04T11:39:58.044Z,3.30
2023-04-04T11:42:42.866Z,4.07
2023-04-04T11:45:27.740Z,3.10
2023-04-04T11:48:04.041Z,3.67
2023-04-04T11:50:50.417Z,3.63
2023-04-04T11:53:26.708Z,3.27
2023-04-04T11:55:53.996Z,3.47
2023-04-04T11:58:26.641Z,4.00
2023-04-04T12:00:53.748Z,4.00
2023-04-04T12:03:43.464Z,5.73
2023-04-04T12:06:29.317Z,3.70
2023-04-04T12:09:00.504Z,3.47
2023-04-04T12:11:29.124Z,2.87
2023-04-04T12:13:57.624Z,5.63
2023-04-04T12:16:33.751Z,3.27
2023-04-04T12:19:12.652Z,3.77
2023-04-04T12:21:40.851Z,3.17
2023-04-04T12:24:09.134Z,5.77
2023-04-04T12:26:38.572Z,3.00
2023-04-04T12:29:29.625Z,3.77
2023-04-04T12:31:58.199Z,5.87
2023-04-04T12:34:33.448Z,4.70
2023-04-04T12:37:05.603Z,5.07
2023-04-04T12:39:38.804Z,4.27
2023-04-04T12:42:05.702Z,3.77
2023-04-04T12:44:37.618Z,3.57
2023-04-04T12:47:06.860Z,4.47
2023-04-04T12:49:42.983Z,5.00
2023-04-04T12:52:22.180Z,4.83
2023-04-04T12:55:06.695Z,4.37
2023-04-04T12:57:35.581Z,5.37
2023-04-04T13:00:04.739Z,4.40
2023-04-04T13:02:31.551Z,3.90
2023-04-04T13:04:58.907Z,4.50
2023-04-04T13:07:37.495Z,4.60
2023-04-04T13:10:05.797Z,3.33
2023-04-04T13:12:57.043Z,3.83
2023-04-04T13:15:24.477Z,3.47
2023-04-04T13:17:51.796Z,6.27
2023-04-04T13:20:20.178Z,3.30
2023-04-04T13:22:47.048Z,3.03
2023-04-04T13:25:13.804Z,3.80
2023-04-04T13:27:41.597Z,3.07
2023-04-04T13:30:10.124Z,5.83
2023-04-04T13:32:37.799Z,4.63
2023-04-04T13:35:04.814Z,3.30
2023-04-04T13:37:31.684Z,3.03
2023-04-04T13:39:58.454Z,4.70
2023-04-04T13:42:30.554Z,5.33
2023-04-04T13:44:57.876Z,4.00
2023-04-04T13:47:27.742Z,4.40
2023-04-04T13:49:57.857Z,5.07
2023-04-04T13:52:24.677Z,3.90
2023-04-04T13:54:51.431Z,3.93
2023-04-04T13:57:18.078Z,5.30
2023-04-04T13:59:44.756Z,3.90
2023-04-04T14:02:11.537Z,4.17
2023-04-04T14:04:38.461Z,4.67
2023-04-04T14:07:05.267Z,3.60
2023-04-04T14:09:32.132Z,3.43
2023-04-04T14:11:58.978Z,2.73
2023-04-04T14:14:25.729Z,2.43
2023-04-04T14:16:52.543Z,3.50
2023-04-04T14:19:19.345Z,5.63
2023-04-04T14:21:46.259Z,5.20
2023-04-04T14:24:13.014Z,5.90
2023-04-04T14:26:39.780Z,4.27
2023-04-04T14:29:07.139Z,3.43
2023-04-04T14:31:35.050Z,3.07
2023-04-04T14:34:02.900Z,3.93
2023-04-04T14:36:29.692Z,4.00
2023-04-04T14:38:56.924Z,3.03
2023-04-04T14:41:26.479Z,2.70
2023-04-04T14:43:53.151Z,3.87
2023-04-04T14:46:20.029Z,2.90
2023-04-04T14:48:47.658Z,4.03
2023-04-04T14:51:14.988Z,2.93
2023-04-04T14:53:42.360Z,2.83
2023-04-04T14:56:09.088Z,2.37
2023-04-04T14:58:36.116Z,3.97
2023-04-04T15:01:03.840Z,3.53
2023-04-04T15:03:30.823Z,2.97
2023-04-04T15:05:57.957Z,3.70
2023-04-04T15:08:24.989Z,3.23
2023-04-04T15:10:51.828Z,3.00
2023-04-04T15:13:18.944Z,3.40
2023-04-04T15:15:45.754Z,3.43
2023-04-04T15:18:12.541Z,3.87
2023-04-04T15:20:40.094Z,3.20
2023-04-04T15:23:07.451Z,6.37
2023-04-04T15:25:34.400Z,3.57
2023-04-04T15:28:01.892Z,3.70
2023-04-04T15:30:29.631Z,4.00
2023-04-04T15:32:57.193Z,3.43
2023-04-04T15:35:24.033Z,2.70
2023-04-04T15:37:51.491Z,3.10
2023-04-04T15:40:19.515Z,3.23
2023-04-04T15:42:47.119Z,3.47
2023-04-04T15:45:14.750Z,2.80
2023-04-04T15:47:42.639Z,3.77
2023-04-04T15:50:11.151Z,3.37
2023-04-04T15:52:38.310Z,3.17
2023-04-04T15:55:10.246Z,4.90
2023-04-04T15:57:37.036Z,3.20
2023-04-04T16:00:04.726Z,3.73
2023-04-04T16:02:32.168Z,3.30
2023-04-04T16:04:59.002Z,4.70
2023-04-04T16:07:26.100Z,4.20
2023-04-04T16:09:53.111Z,2.97
2023-04-04T16:12:20.497Z,3.37
2023-04-04T16:14:47.344Z,4.57
2023-04-04T16:17:14.412Z,4.93
2023-04-04T16:19:41.197Z,4.30
2023-04-04T16:22:08.169Z,3.57
2023-04-04T16:24:35.216Z,4.57
2023-04-04T16:27:01.936Z,2.70
2023-04-04T16:29:31.286Z,3.40
2023-04-04T16:31:58.037Z,5.70
2023-04-04T16:34:24.740Z,4.33
2023-04-04T16:36:51.539Z,3.33
2023-04-04T16:39:18.337Z,3.43
2023-04-04T16:41:45.061Z,6.00
2023-04-04T16:44:12.494Z,6.30
2023-04-04T16:46:39.459Z,6.00
2023-04-04T16:49:06.528Z,3.40
2023-04-04T16:51:33.515Z,3.33
2023-04-04T16:54:00.249Z,2.73
2023-04-04T16:56:27.014Z,3.87
2023-04-04T16:58:53.719Z,4.13
2023-04-04T17:01:23.066Z,2.50
2023-04-04T17:03:49.971Z,4.13
2023-04-04T17:06:16.698Z,3.07
2023-04-04T17:08:45.229Z,2.63
2023-04-04T17:11:13.277Z,5.93
2023-04-04T17:13:39.990Z,2.70
2023-04-04T17:16:07.490Z,3.53
2023-04-04T17:18:34.354Z,3.33
2023-04-04T17:21:01.589Z,3.03
2023-04-04T17:23:28.442Z,4.20
2023-04-04T17:25:55.206Z,3.87
2023-04-04T17:28:21.952Z,4.00
2023-04-04T17:30:48.630Z,7.20
2023-04-04T17:33:15.924Z,4.13
2023-04-04T17:35:48.572Z,6.43
2023-04-04T17:38:15.336Z,3.87
2023-04-04T17:40:42.214Z,4.63
2023-04-04T17:43:08.969Z,6.17
2023-04-04T17:45:35.774Z,6.40
2023-04-04T17:48:02.521Z,4.50
2023-04-04T17:50:29.273Z,3.80
2023-04-04T17:52:56.272Z,4.40
2023-04-04T17:55:23.175Z,5.33
2023-04-04T17:57:49.890Z,3.37
2023-04-04T18:00:16.930Z,4.60
2023-04-04T18:02:43.841Z,6.73
2023-04-04T18:05:10.845Z,6.20
2023-04-04T18:07:37.501Z,4.53
2023-04-04T18:10:04.483Z,6.27
2023-04-04T18:12:35.700Z,5.10
2023-04-04T18:15:02.988Z,4.50
2023-04-04T18:17:29.929Z,4.80
2023-04-04T18:19:57.776Z,5.17
2023-04-04T18:22:24.593Z,6.17
2023-04-04T18:24:51.231Z,3.33
2023-04-04T18:27:18.171Z,4.70
2023-04-04T18:29:44.957Z,3.40
2023-04-04T18:32:11.819Z,3.40
2023-04-04T18:34:38.754Z,3.70
2023-04-04T18:37:06.451Z,4.70
2023-04-04T18:39:33.170Z,4.60
2023-04-04T18:42:00.027Z,4.30
2023-04-04T18:44:27.285Z,5.43
2023-04-04T18:46:54.013Z,6.60
2023-04-04T18:49:20.738Z,3.73
2023-04-04T18:51:50.215Z,4.23
2023-04-04T18:54:17.152Z,6.00
2023-04-04T18:56:43.863Z,4.80
2023-04-04T18:59:10.878Z,4.30
2023-04-04T19:01:39.304Z,3.50
2023-04-04T19:04:08.673Z,4.90
2023-04-04T19:06:36.016Z,4.00
2023-04-04T19:09:04.387Z,4.43
2023-04-04T19:11:31.842Z,3.37
2023-04-04T19:13:58.844Z,4.43
2023-04-04T19:16:25.583Z,3.90
2023-04-04T19:18:52.309Z,4.23
2023-04-04T19:21:18.988Z,3.70
2023-04-04T19:23:46.601Z,4.57
2023-04-04T19:26:13.618Z,5.43
2023-04-04T19:28:41.387Z,6.23
2023-04-04T19:31:10.778Z,4.33
2023-04-04T19:33:38.788Z,4.40
2023-04-04T19:36:11.156Z,4.90
2023-04-04T19:38:39.955Z,5.90
2023-04-04T19:41:11.413Z,5.37
2023-04-04T19:43:41.713Z,6.57
2023-04-04T19:46:10.178Z,7.33
2023-04-04T19:48:44.102Z,6.47
2023-04-04T19:51:32.468Z,6.40
2023-04-04T19:53:59.933Z,6.67
2023-04-04T19:56:27.914Z,6.03
2023-04-04T19:58:59.841Z,7.90
2023-04-04T20:01:31.881Z,8.47
2023-04-04T20:04:06.781Z,5.70
2023-04-04T20:06:34.273Z,5.63
2023-04-04T20:09:32.155Z,4.87
2023-04-04T20:11:58.823Z,4.50
2023-04-04T20:14:25.595Z,6.17
2023-04-04T20:16:52.598Z,7.23
2023-04-04T20:19:20.930Z,7.43
2023-04-04T20:21:48.952Z,8.00
2023-04-04T20:24:17.578Z,6.63
2023-04-04T20:26:55.220Z,8.00
2023-04-04T20:29:25.689Z,7.10
2023-04-04T20:31:55.783Z,10.20
2023-04-04T20:34:34.414Z,8.27
2023-04-04T20:37:03.465Z,6.93
2023-04-04T20:39:54.390Z,9.17
2023-04-04T20:42:30.025Z,10.07
2023-04-04T20:45:35.352Z,6.80
2023-04-04T20:48:07.385Z,6.00
2023-04-04T20:50:34.305Z,11.43
2023-04-04T20:53:03.774Z,10.13
2023-04-04T20:55:32.065Z,6.57
2023-04-04T20:58:09.498Z,7.30
2023-04-04T21:00:41.435Z,7.03
2023-04-04T21:03:26.820Z,7.30
2023-04-04T21:05:59.317Z,5.47
2023-04-04T21:08:27.336Z,6.50
2023-04-04T21:10:56.337Z,6.83
2023-04-04T21:13:44.808Z,8.83
2023-04-04T21:16:13.941Z,9.00
2023-04-04T21:18:41.920Z,9.20
2023-04-04T21:21:19.811Z,7.40
2023-04-04T21:23:53.029Z,10.37
2023-04-04T21:26:27.603Z,6.47
2023-04-04T21:28:55.823Z,6.00
2023-04-04T21:31:29.114Z,5.27
2023-04-04T21:33:58.349Z,5.80
2023-04-04T21:36:29.900Z,9.00
2023-04-04T21:39:01.575Z,6.27
2023-04-04T21:41:33.714Z,6.03
2023-04-04T21:44:03.062Z,5.17
2023-04-04T21:46:33.426Z,5.17
2023-04-04T21:49:01.017Z,5.67
2023-04-04T21:51:28.696Z,6.57
2023-04-04T21:54:00.858Z,6.53
2023-04-04T21:56:34.842Z,5.97
2023-04-04T21:59:04.419Z,5.10
2023-04-04T22:01:31.746Z,7.97
2023-04-04T22:03:59.502Z,6.47
2023-04-04T22:06:33.815Z,7.17
2023-04-04T22:09:05.801Z,6.07
2023-04-04T22:11:45.418Z,6.53
2023-04-04T22:14:27.680Z,5.33
2023-04-04T22:16:59.219Z,6.50
2023-04-04T22:19:26.638Z,5.27
2023-04-04T22:21:54.493Z,6.30
2023-04-04T22:24:21.646Z,6.93
2023-04-04T22:26:50.842Z,5.70
2023-04-04T22:29:17.919Z,7.63
2023-04-04T22:31:45.071Z,8.23
2023-04-04T22:34:15.629Z,9.17
2023-04-04T22:36:46.003Z,10.00
2023-04-04T22:39:23.605Z,9.17
2023-04-04T22:41:51.055Z,7.53
2023-04-04T22:44:18.492Z,8.73
2023-04-04T22:46:48.882Z,9.27
2023-04-04T22:49:18.454Z,10.13
2023-04-04T22:51:46.191Z,9.10
2023-04-04T22:54:15.512Z,10.90
2023-04-04T22:56:49.093Z,8.30
2023-04-04T22:59:16.414Z,8.90
2023-04-04T23:01:46.972Z,8.87
2023-04-04T23:04:14.989Z,9.03
2023-04-04T23:06:43.353Z,9.17
2023-04-04T23:09:10.988Z,8.63
2023-04-04T23:11:42.310Z,11.23
2023-04-04T23:14:15.360Z,8.70
2023-04-04T23:16:43.138Z,11.37
2023-04-04T23:19:10.569Z,7.87
2023-04-04T23:21:38.277Z,9.40
2023-04-04T23:24:12.130Z,7.60
2023-04-04T23:26:42.132Z,7.93
2023-04-04T23:29:10.428Z,8.43
2023-04-04T23:31:37.552Z,9.63
2023-04-04T23:34:05.156Z,9.17
2023-04-04T23:36:33.057Z,7.70
2023-04-04T23:39:00.127Z,8.73
2023-04-04T23:41:30.325Z,7.40
2023-04-04T23:43:57.600Z,8.00
2023-04-04T23:46:24.579Z,6.17
2023-04-04T23:48:51.531Z,6.80
2023-04-04T23:51:18.788Z,6.87
2023-04-04T23:53:45.933Z,7.17
2023-04-04T23:56:13.482Z,7.27
2023-04-04T23:58:40.804Z,7.67
